Time;durP1;ratioP1;P1;durP2;ratioP2;P2;SDS_P1;SDS_P2;PMS_P1;PMS_P2;Temp;Humidity;BMP_temperature;BMP_pressure;BME280_temperature;BME280_humidity;BME280_pressure;Samples;Min_cycle;Max_cycle;Signal;HPM_P1;HPM_P2
2021/11/18 00:02:01;;;;;;;12.68;6.55;;;;;;;19.66;49.83;102252.00;5054717;28;20501;-78
2021/11/18 00:04:26;;;;;;;12.10;5.88;;;;;;;20.06;48.64;102248.72;5054958;28;20396;-78
2021/11/18 00:06:52;;;;;;;12.55;5.60;;;;;;;20.02;48.89;102250.53;5054957;28;20025;-78
2021/11/18 00:09:20;;;;;;;5.97;4.45;;;;;;;19.70;49.68;102247.38;5054302;28;20039;-78
2021/11/18 00:11:46;;;;;;;10.32;4.53;;;;;;;20.07;48.70;102251.13;5053147;28;20048;-78
2021/11/18 00:14:12;;;;;;;10.65;5.10;;;;;;;19.68;49.88;102241.38;5054564;28;20029;-79
2021/11/18 00:16:39;;;;;;;8.98;4.93;;;;;;;19.99;49.35;102248.44;5054683;28;20061;-78
2021/11/18 00:19:05;;;;;;;12.95;5.68;;;;;;;20.10;48.85;102238.53;5054739;28;20053;-78
2021/11/18 00:21:35;;;;;;;9.80;5.13;;;;;;;20.12;48.88;102247.34;5054021;28;20029;-78
2021/11/18 00:24:01;;;;;;;;;;;;;;;20.07;49.16;102247.56;5055153;28;20029;-78
2021/11/18 00:26:29;;;;;;;11.65;5.38;;;;;;;20.20;48.49;102252.00;5054545;28;20359;-78
2021/11/18 00:28:56;;;;;;;8.32;4.03;;;;;;;20.19;48.53;102253.16;5054166;28;20064;-78
2021/11/18 00:31:29;;;;;;;11.38;5.38;;;;;;;19.91;49.48;102247.38;5054689;28;20490;-78
2021/11/18 00:33:55;;;;;;;8.65;4.57;;;;;;;19.88;49.90;102264.72;5054188;28;20044;-78
2021/11/18 00:36:21;;;;;;;11.52;4.18;;;;;;;19.91;49.85;102255.69;5053727;28;20068;-77
2021/11/18 00:38:47;;;;;;;10.65;3.92;;;;;;;19.84;50.06;102255.44;5054179;28;20083;-77
2021/11/18 00:41:15;;;;;;;7.35;4.13;;;;;;;19.53;50.97;102253.84;5054040;28;20029;-77
2021/11/18 00:43:41;;;;;;;9.43;3.88;;;;;;;20.02;49.65;102258.84;5054069;28;20104;-77
2021/11/18 00:46:07;;;;;;;9.05;4.07;;;;;;;20.07;49.44;102266.97;5054065;28;20440;-78
2021/11/18 00:48:33;;;;;;;10.20;4.60;;;;;;;19.65;50.63;102267.00;5053977;28;20052;-78
2021/11/18 00:51:04;;;;;;;9.75;4.32;;;;;;;19.88;50.21;102271.06;5053888;28;20029;-77
2021/11/18 00:53:30;;;;;;;11.55;4.63;;;;;;;20.03;49.64;102268.81;5052832;28;20017;-78
2021/11/18 00:55:57;;;;;;;8.20;4.18;;;;;;;19.93;50.09;102279.16;5053893;28;20029;-78
2021/11/18 00:58:23;;;;;;;10.50;4.43;;;;;;;19.80;50.42;102271.09;5053912;28;20074;-78
2021/11/18 01:00:50;;;;;;;10.75;4.50;;;;;;;19.93;50.27;102284.72;5053909;28;20028;-78
2021/11/18 01:03:20;;;;;;;9.10;4.63;;;;;;;19.84;50.62;102278.44;5052653;28;20391;-78
2021/11/18 01:05:48;;;;;;;9.43;4.82;;;;;;;19.77;50.90;102283.69;5053670;28;20029;-78
2021/11/18 01:08:14;;;;;;;10.27;4.28;;;;;;;20.14;49.67;102284.69;5053724;28;20395;-79
2021/11/18 01:10:54;;;;;;;10.70;4.68;;;;;;;20.19;49.50;102284.50;5053479;28;20037;-78
2021/11/18 01:13:22;;;;;;;8.35;4.97;;;;;;;20.27;49.34;102288.34;5053415;28;20057;-78
2021/11/18 01:15:49;;;;;;;9.25;5.60;;;;;;;20.15;49.79;102291.06;5053523;28;20025;-78
2021/11/18 01:18:15;;;;;;;9.30;4.53;;;;;;;20.05;50.18;102288.72;5053432;28;20056;-78
2021/11/18 01:20:42;;;;;;;9.07;4.18;;;;;;;20.04;50.05;102285.13;5053781;28;20037;-78
2021/11/18 01:23:12;;;;;;;9.05;4.85;;;;;;;19.86;50.68;102278.88;5053600;28;20031;-79
2021/11/18 01:25:38;;;;;;;8.55;3.90;;;;;;;19.74;51.19;102281.63;5053818;28;20100;-79
2021/11/18 01:28:06;;;;;;;10.38;4.70;;;;;;;19.97;50.56;102278.50;5053529;28;20075;-78
2021/11/18 01:30:33;;;;;;;10.20;4.75;;;;;;;19.86;50.95;102262.25;5053038;28;20053;-79
2021/11/18 01:33:03;;;;;;;7.22;4.00;;;;;;;19.84;51.00;102270.09;5053241;28;20063;-79
2021/11/18 01:35:29;;;;;;;10.18;5.15;;;;;;;19.91;50.96;102264.81;5053216;28;20028;-80
2021/11/18 01:37:54;;;;;;;6.90;3.20;;;;;;;19.93;50.80;102256.16;5053367;28;20025;-79
2021/11/18 01:40:25;;;;;;;8.57;3.78;;;;;;;19.78;51.46;102259.56;5053328;28;20383;-79
2021/11/18 01:42:52;;;;;;;7.95;4.05;;;;;;;19.92;50.89;102249.00;5053037;28;20052;-79
2021/11/18 01:45:20;;;;;;;7.10;3.70;;;;;;;19.74;51.71;102258.63;5053023;28;20028;-79
2021/11/18 01:47:46;;;;;;;4.82;3.25;;;;;;;20.08;50.45;102260.25;5053180;28;20037;-79
2021/11/18 01:50:15;;;;;;;6.57;3.28;;;;;;;20.25;49.87;102260.09;5052984;28;20090;-79
2021/11/18 01:52:43;;;;;;;12.40;4.13;;;;;;;20.21;49.88;102256.38;5051556;28;20029;-80
2021/11/18 01:55:09;;;;;;;7.90;3.33;;;;;;;20.39;49.60;102252.25;5052800;28;20021;-79
2021/11/18 01:57:36;;;;;;;5.68;3.63;;;;;;;20.40;49.46;102242.81;5052926;28;20391;-79
2021/11/18 02:00:10;;;;;;;6.47;3.63;;;;;;;20.42;49.45;102237.72;5052997;28;20021;-80
2021/11/18 02:02:36;;;;;;;8.65;3.33;;;;;;;20.16;50.36;102240.75;5051577;28;20021;-79
2021/11/18 02:05:19;;;;;;;7.90;3.30;;;;;;;20.38;49.70;102252.63;5051468;28;20028;-79
2021/11/18 02:07:46;;;;;;;5.65;2.90;;;;;;;20.15;50.53;102255.78;5052511;28;20112;-78
2021/11/18 02:10:19;;;;;;;5.35;3.33;;;;;;;20.17;50.36;102247.91;5052521;28;20074;-79
2021/11/18 02:12:45;;;;;;;6.20;2.85;;;;;;;20.22;50.21;102249.69;5051651;28;20048;-80
2021/11/18 02:15:23;;;;;;;7.68;2.47;;;;;;;19.83;51.58;102246.28;5052411;28;20028;-79
2021/11/18 02:17:49;;;;;;;6.85;3.53;;;;;;;19.79;51.65;102247.31;5052797;28;20048;-78
2021/11/18 02:20:27;;;;;;;6.10;2.80;;;;;;;19.91;51.39;102253.72;5051556;28;20051;-78
2021/11/18 02:22:54;;;;;;;5.10;2.78;;;;;;;20.01;51.15;102249.72;5052669;28;20025;-78
2021/11/18 02:25:28;;;;;;;5.13;2.45;;;;;;;20.11;50.72;102260.41;5052635;28;20383;-78
2021/11/18 02:27:54;;;;;;;4.00;2.80;;;;;;;19.94;51.17;102266.09;5052504;28;20471;-78
2021/11/18 02:30:21;;;;;;;5.30;3.15;;;;;;;20.04;51.07;102264.88;5052139;28;20203;-79
2021/11/18 02:32:48;;;;;;;3.75;2.63;;;;;;;20.15;50.57;102253.00;5051177;28;20021;-78
2021/11/18 02:35:21;;;;;;;4.78;2.58;;;;;;;20.27;50.41;102260.56;5052218;28;20490;-79
2021/11/18 02:37:48;;;;;;;7.60;2.40;;;;;;;20.20;50.62;102261.13;5052566;28;20032;-79
2021/11/18 02:40:14;;;;;;;5.78;2.85;;;;;;;20.27;50.45;102257.81;5052443;28;20032;-78
2021/11/18 02:42:42;;;;;;;3.88;2.08;;;;;;;19.87;51.69;102260.28;5052602;28;20467;-79
2021/11/18 02:45:15;;;;;;;6.43;2.42;;;;;;;20.22;50.62;102252.47;5052576;28;20025;-79
2021/11/18 02:47:41;;;;;;;4.20;2.17;;;;;;;20.26;50.46;102258.16;5051161;28;20025;-79
2021/11/18 02:50:11;;;;;;;4.50;2.20;;;;;;;20.24;50.61;102262.06;5052255;28;20052;-79
2021/11/18 02:52:37;;;;;;;4.57;2.03;;;;;;;19.85;51.65;102257.03;5052358;28;20036;-78
2021/11/18 02:55:08;;;;;;;2.60;1.75;;;;;;;20.10;51.25;102263.50;5050674;28;20029;-78
2021/11/18 02:57:34;;;;;;;4.90;2.28;;;;;;;20.28;50.44;102255.84;5051088;28;20025;-78
2021/11/18 02:59:59;;;;;;;4.22;1.92;;;;;;;20.25;50.67;102257.31;5051060;28;20387;-79
2021/11/18 03:02:26;;;;;;;3.50;1.75;;;;;;;20.32;50.58;102259.53;5052315;28;20032;-79
2021/11/18 03:04:52;;;;;;;4.18;1.63;;;;;;;20.19;50.86;102247.59;5052561;28;20510;-79
2021/11/18 03:07:18;;;;;;;2.78;1.27;;;;;;;19.90;52.07;102246.56;5052337;28;20029;-78
2021/11/18 03:09:44;;;;;;;4.00;1.80;;;;;;;19.79;52.17;102247.31;5052054;28;20032;-78
2021/11/18 03:12:09;;;;;;;2.30;1.25;;;;;;;19.66;52.83;102240.91;5052190;28;20025;-78
2021/11/18 03:14:35;;;;;;;1.67;1.25;;;;;;;19.79;52.24;102253.66;5052044;28;20368;-79
2021/11/18 03:17:01;;;;;;;2.58;1.35;;;;;;;19.48;53.25;102245.72;5054545;28;20032;-79
2021/11/18 03:19:27;;;;;;;2.42;1.20;;;;;;;19.87;52.08;102238.91;5054600;28;20028;-78
2021/11/18 03:21:53;;;;;;;1.88;1.20;;;;;;;19.72;52.56;102245.06;5056040;28;20025;-78
2021/11/18 03:24:20;;;;;;;2.22;1.38;;;;;;;19.85;52.18;102246.75;5055767;28;20025;-78
2021/11/18 03:26:45;;;;;;;1.95;1.13;;;;;;;19.75;52.38;102249.97;5055941;28;20025;-79
2021/11/18 03:29:11;;;;;;;1.92;1.10;;;;;;;19.72;52.70;102242.28;5055472;28;20099;-79
2021/11/18 03:31:37;;;;;;;1.67;1.25;;;;;;;20.06;51.50;102254.25;5055519;28;20056;-79
2021/11/18 03:34:12;;;;;;;1.90;1.17;;;;;;;20.02;51.57;102253.31;5055428;28;20036;-79
2021/11/18 03:36:38;;;;;;;1.58;1.13;;;;;;;20.03;51.61;102252.19;5055534;28;20028;-82
2021/11/18 03:39:07;;;;;;;1.88;1.45;;;;;;;20.01;51.53;102248.91;5055685;28;20025;-78
2021/11/18 03:41:36;;;;;;;1.83;1.13;;;;;;;20.08;51.39;102236.09;5055595;28;20036;-78
2021/11/18 03:44:05;;;;;;;2.13;1.10;;;;;;;19.90;52.27;102235.47;5055620;28;20029;-79
2021/11/18 03:46:44;;;;;;;1.77;1.38;;;;;;;19.98;51.91;102247.63;5055326;28;20052;-78
2021/11/18 03:49:11;;;;;;;2.15;1.40;;;;;;;20.12;51.68;102248.16;5055505;28;20373;-78
2021/11/18 03:51:37;;;;;;;2.80;1.48;;;;;;;19.91;52.46;102242.63;5053958;28;20442;-78
2021/11/18 03:54:05;;;;;;;1.40;1.10;;;;;;;19.70;53.37;102252.94;5055278;28;20027;-78
2021/11/18 03:56:38;;;;;;;3.03;1.20;;;;;;;19.97;52.45;102256.31;5055242;28;20053;-79
2021/11/18 03:59:06;;;;;;;2.72;1.23;;;;;;;20.13;51.92;102252.56;5055251;28;20029;-78
2021/11/18 04:01:31;;;;;;;1.60;0.95;;;;;;;20.10;52.14;102260.72;5055135;28;20534;-78
2021/11/18 04:03:57;;;;;;;1.88;1.20;;;;;;;20.03;52.27;102266.03;5055225;28;20108;-79
2021/11/18 04:06:23;;;;;;;2.13;1.67;;;;;;;20.18;52.05;102260.66;5055232;28;20032;-78
2021/11/18 04:08:48;;;;;;;2.63;1.02;;;;;;;19.94;53.06;102269.69;5053665;28;20028;-78
2021/11/18 04:11:15;;;;;;;3.05;1.40;;;;;;;20.16;52.38;102270.47;5054782;28;20475;-79
2021/11/18 04:13:40;;;;;;;2.63;1.40;;;;;;;20.32;51.83;102265.09;5053628;28;20024;-78
2021/11/18 04:16:07;;;;;;;3.40;1.10;;;;;;;20.36;51.73;102272.41;5054867;28;20083;-79
2021/11/18 04:18:32;;;;;;;1.73;1.02;;;;;;;20.34;51.68;102268.34;5055144;28;20017;-79
2021/11/18 04:20:58;;;;;;;1.63;0.90;;;;;;;20.39;51.78;102273.66;5055098;28;20032;-78
2021/11/18 04:23:27;;;;;;;2.92;0.98;;;;;;;20.38;51.83;102266.50;5054726;28;20053;-78
2021/11/18 04:25:53;;;;;;;1.97;1.27;;;;;;;19.98;53.41;102280.13;5054666;28;20025;-79
2021/11/18 04:28:20;;;;;;;1.65;1.00;;;;;;;19.92;53.87;102280.31;5054786;28;20044;-79
2021/11/18 04:31:03;;;;;;;2.03;1.20;;;;;;;19.94;53.81;102279.97;5054254;28;20056;-79
2021/11/18 04:33:31;;;;;;;2.67;1.00;;;;;;;20.20;52.70;102274.19;5054658;28;20475;-78
2021/11/18 04:35:58;;;;;;;1.95;1.10;;;;;;;20.44;51.93;102284.59;5054655;28;20479;-79
2021/11/18 04:38:23;;;;;;;1.77;1.00;;;;;;;20.35;52.22;102283.84;5054406;28;20025;-79
2021/11/18 04:40:50;;;;;;;1.05;0.63;;;;;;;20.01;53.52;102291.34;5054499;28;20044;-78
2021/11/18 04:43:18;;;;;;;1.80;1.10;;;;;;;20.05;53.49;102280.38;5054461;28;20029;-79
2021/11/18 04:45:43;;;;;;;2.50;1.10;;;;;;;20.29;52.56;102294.34;5054223;28;20451;-78
2021/11/18 04:48:09;;;;;;;1.38;0.88;;;;;;;20.47;51.90;102289.44;5054449;28;20113;-78
2021/11/18 04:50:36;;;;;;;2.80;1.20;;;;;;;20.31;52.38;102294.81;5054123;28;20430;-79
2021/11/18 04:53:02;;;;;;;1.65;1.00;;;;;;;19.94;53.98;102302.97;5054058;28;20056;-79
2021/11/18 04:55:28;;;;;;;1.25;0.88;;;;;;;20.54;52.07;102300.00;5054436;28;20025;-80
2021/11/18 04:57:54;;;;;;;2.03;1.00;;;;;;;20.52;51.93;102293.97;5054488;28;20059;-80
2021/11/18 05:00:27;;;;;;;1.90;1.00;;;;;;;20.29;52.63;102291.56;5054234;28;20033;-79
2021/11/18 05:02:53;;;;;;;1.48;0.75;;;;;;;20.32;52.46;102304.75;5053977;28;20471;-79
2021/11/18 05:05:20;;;;;;;2.85;0.70;;;;;;;20.35;52.62;102312.41;5053825;28;20037;-78
2021/11/18 05:07:46;;;;;;;2.35;0.80;;;;;;;20.41;52.25;102311.06;5053925;28;20025;-79
2021/11/18 05:10:15;;;;;;;1.92;1.08;;;;;;;20.49;52.08;102307.41;5053790;28;20029;-80
2021/11/18 05:12:41;;;;;;;1.60;0.93;;;;;;;20.36;52.59;102313.22;5045667;28;20076;-79
2021/11/18 05:15:11;;;;;;;2.85;1.23;;;;;;;20.36;52.55;102305.72;5033652;28;20169;-79
2021/11/18 05:17:37;;;;;;;1.60;0.70;;;;;;;20.49;52.10;102310.19;5033543;28;20021;-79
2021/11/18 05:20:05;;;;;;;1.77;0.70;;;;;;;20.56;51.91;102306.03;5033696;28;20021;-78
2021/11/18 05:22:31;;;;;;;1.17;0.63;;;;;;;20.64;51.55;102305.13;5034015;28;20100;-78
2021/11/18 05:24:56;;;;;;;1.73;0.98;;;;;;;20.56;51.83;102304.06;5033394;28;20484;-78
2021/11/18 05:27:24;;;;;;;1.27;0.82;;;;;;;20.59;51.78;102302.56;5033670;28;20026;-79
2021/11/18 05:29:50;;;;;;;1.70;0.90;;;;;;;20.59;51.82;102297.81;5033352;28;20045;-79
2021/11/18 05:32:16;;;;;;;0.98;0.75;;;;;;;20.59;51.79;102294.22;5033450;28;20022;-79
2021/11/18 05:34:42;;;;;;;1.70;0.65;;;;;;;20.58;51.94;102292.63;5033449;28;20574;-79
2021/11/18 05:37:07;;;;;;;1.23;0.77;;;;;;;20.48;52.24;102294.69;5033466;28;20072;-78
2021/11/18 05:39:34;;;;;;;1.10;0.70;;;;;;;20.42;52.55;102295.22;5032902;28;20029;-79
2021/11/18 05:42:00;;;;;;;2.15;1.20;;;;;;;20.65;51.68;102293.69;5031983;28;20034;-79
2021/11/18 05:44:26;;;;;;;1.20;0.65;;;;;;;20.46;52.29;102296.16;5033405;28;20021;-79
2021/11/18 05:46:53;;;;;;;2.97;1.15;;;;;;;20.55;52.20;102307.16;5033209;28;20048;-77
2021/11/18 05:49:18;;;;;;;1.85;0.70;;;;;;;20.16;53.28;102309.31;5033210;28;20029;-78
2021/11/18 05:51:46;;;;;;;1.05;0.60;;;;;;;20.39;52.52;102309.75;5047523;28;20029;-78
2021/11/18 05:54:12;;;;;;;2.17;0.80;;;;;;;20.60;51.95;102312.50;5031216;28;20021;-78
2021/11/18 05:56:38;;;;;;;0.90;0.68;;;;;;;20.48;52.65;102304.97;5033149;28;20095;-78
2021/11/18 05:59:04;;;;;;;1.58;0.60;;;;;;;20.84;51.36;102308.97;5033228;28;20030;-78
2021/11/18 06:01:30;;;;;;;1.02;0.60;;;;;;;20.75;51.53;102314.63;5032996;28;20361;-78
2021/11/18 06:03:58;;;;;;;1.00;0.60;;;;;;;20.67;51.67;102323.88;5032594;28;20071;-78
2021/11/18 06:06:24;;;;;;;0.50;0.50;;;;;;;20.29;53.03;102311.00;5033026;28;20519;-78
2021/11/18 06:08:49;;;;;;;1.23;0.60;;;;;;;21.06;50.51;102309.34;5048057;28;20124;-78
2021/11/18 06:11:15;;;;;;;1.63;0.80;;;;;;;21.05;50.40;102307.72;5031580;28;20040;-78
2021/11/18 06:13:42;;;;;;;1.40;0.50;;;;;;;20.97;50.45;102303.09;5031830;28;20034;-79
2021/11/18 06:16:08;;;;;;;0.82;0.52;;;;;;;21.07;50.12;102310.16;5048173;28;20502;-79
2021/11/18 06:18:34;;;;;;;2.85;0.70;;;;;;;21.08;50.03;102308.97;5032605;28;20033;-78
2021/11/18 06:21:01;;;;;;;1.40;0.70;;;;;;;21.19;50.00;102320.47;5032846;28;20025;-78
2021/11/18 06:23:27;;;;;;;0.73;0.60;;;;;;;21.16;49.93;102319.22;5032776;28;20726;-77
2021/11/18 06:25:52;;;;;;;1.95;0.60;;;;;;;20.98;50.54;102313.03;5047945;28;20025;-78
2021/11/18 06:28:19;;;;;;;0.82;0.73;;;;;;;21.15;50.00;102311.19;5032440;28;20033;-77
2021/11/18 06:30:54;;;;;;;1.40;0.50;;;;;;;21.02;50.29;102319.53;5032394;28;20060;-78
2021/11/18 06:33:21;;;;;;;1.52;0.90;;;;;;;21.16;49.92;102326.69;5032570;28;20021;-77
2021/11/18 06:35:49;;;;;;;1.70;0.90;;;;;;;20.90;50.77;102318.72;5032682;28;20687;-78
2021/11/18 06:38:14;;;;;;;1.73;0.68;;;;;;;20.86;50.91;102326.94;5032684;28;20543;-78
2021/11/18 06:40:40;;;;;;;0.75;0.60;;;;;;;20.87;50.79;102323.00;5032671;28;20097;-80
2021/11/18 06:43:06;;;;;;;3.95;0.90;;;;;;;20.93;50.44;102335.50;5032615;28;20030;-78
2021/11/18 06:45:36;;;;;;;1.70;0.45;;;;;;;20.88;50.46;102321.03;5032696;28;20555;-78
2021/11/18 06:48:03;;;;;;;1.52;0.70;;;;;;;20.84;50.62;102336.75;5032507;28;20369;-78
2021/11/18 06:50:29;;;;;;;3.28;1.02;;;;;;;20.69;51.29;102343.78;5032403;28;20026;-78
2021/11/18 06:52:55;;;;;;;2.67;0.90;;;;;;;20.80;50.96;102344.97;5036343;28;20112;-78
2021/11/18 06:55:22;;;;;;;2.25;1.25;;;;;;;21.06;50.20;102342.69;5036723;28;20090;-78
2021/11/18 06:57:51;;;;;;;1.42;0.40;;;;;;;20.92;50.90;102350.53;5035153;28;20083;-77
2021/11/18 07:00:18;;;;;;;3.22;0.70;;;;;;;20.95;50.68;102363.75;5036433;28;20033;-78
2021/11/18 07:02:44;;;;;;;1.58;0.93;;;;;;;20.88;50.72;102354.38;5036293;28;20033;-80
2021/11/18 07:05:10;;;;;;;2.63;1.05;;;;;;;20.69;51.39;102363.22;5036180;28;20022;-80
2021/11/18 07:07:36;;;;;;;1.17;0.80;;;;;;;21.09;50.52;102362.63;5036062;28;20026;-78
2021/11/18 07:10:04;;;;;;;2.03;0.70;;;;;;;20.87;51.16;102361.88;5035922;28;20373;-80
2021/11/18 07:12:30;;;;;;;1.90;0.80;;;;;;;20.95;50.78;102369.31;5036077;28;20033;-77
2021/11/18 07:14:57;;;;;;;2.40;0.90;;;;;;;20.88;51.02;102362.69;5036208;28;20420;-78
2021/11/18 07:17:22;;;;;;;2.50;0.90;;;;;;;20.78;51.31;102363.94;5036075;28;20049;-79
2021/11/18 07:19:48;;;;;;;2.25;0.98;;;;;;;21.01;50.49;102367.13;5035947;28;20034;-78
2021/11/18 07:22:15;;;;;;;2.00;0.80;;;;;;;20.87;50.98;102364.66;5036039;28;20464;-78
2021/11/18 07:24:42;;;;;;;2.10;0.70;;;;;;;20.77;51.65;102368.69;5036080;28;20400;-77
2021/11/18 07:27:08;;;;;;;1.73;1.00;;;;;;;20.91;50.84;102368.38;5035701;28;20033;-78
2021/11/18 07:29:34;;;;;;;2.75;1.33;;;;;;;21.03;50.68;102379.50;5066738;28;20049;-77
2021/11/18 07:32:00;;;;;;;2.88;1.00;;;;;;;21.03;50.68;102371.19;5054931;28;20037;-79
2021/11/18 07:34:26;;;;;;;2.30;1.05;;;;;;;21.09;50.56;102380.13;5054461;28;20044;-78
2021/11/18 07:36:52;;;;;;;2.13;1.02;;;;;;;20.89;50.97;102376.25;5055519;28;20017;-77
2021/11/18 07:39:21;;;;;;;2.10;1.00;;;;;;;20.98;50.80;102370.59;5055512;28;20581;-77
2021/11/18 07:41:52;;;;;;;3.55;1.40;;;;;;;20.82;51.19;102378.78;5054045;28;20114;-77
2021/11/18 07:44:18;;;;;;;1.20;0.80;;;;;;;20.52;52.24;102377.28;5055093;28;20029;-78
2021/11/18 07:46:45;;;;;;;2.15;0.95;;;;;;;20.08;53.48;102374.84;5055073;28;20024;-78
2021/11/18 07:49:10;;;;;;;3.15;1.17;;;;;;;20.01;54.06;102379.31;5055158;28;20475;-79
2021/11/18 07:51:38;;;;;;;2.03;0.85;;;;;;;20.02;54.02;102390.06;5055297;28;20025;-79
2021/11/18 07:54:06;;;;;;;2.67;1.30;;;;;;;19.97;54.17;102372.81;5053940;28;20028;-79
2021/11/18 07:56:33;;;;;;;4.75;1.42;;;;;;;20.14;53.53;102395.69;5053530;28;20025;-79
2021/11/18 07:58:58;;;;;;;2.13;1.02;;;;;;;20.08;53.38;102393.44;5055191;28;20032;-78
2021/11/18 08:01:24;;;;;;;3.25;0.82;;;;;;;20.16;53.39;102400.91;5054109;28;20025;-78
2021/11/18 08:03:50;;;;;;;4.07;1.25;;;;;;;20.17;53.40;102408.88;5054728;28;20050;-83
2021/11/18 08:06:20;;;;;;;4.15;0.90;;;;;;;20.30;52.82;102417.28;5054991;28;20378;-77
2021/11/18 08:08:48;;;;;;;1.67;0.73;;;;;;;19.91;54.32;102420.16;5054815;28;20025;-77
2021/11/18 08:11:15;;;;;;;5.15;1.25;;;;;;;20.15;53.58;102433.38;5055298;28;20020;-85
2021/11/18 08:13:41;;;;;;;2.17;0.90;;;;;;;20.09;53.85;102428.38;5054767;28;20031;-80
2021/11/18 08:16:07;;;;;;;3.10;1.20;;;;;;;20.39;53.10;102421.59;5042196;28;20025;-78
2021/11/18 08:18:33;;;;;;;5.70;1.50;;;;;;;20.49;52.82;102417.66;5038717;28;20550;-79
2021/11/18 08:20:58;;;;;;;4.60;1.13;;;;;;;20.60;52.39;102409.72;5038711;28;20037;-78
2021/11/18 08:23:24;;;;;;;3.35;0.80;;;;;;;20.57;52.46;102413.19;5044651;28;20028;-77
2021/11/18 08:25:50;;;;;;;3.45;1.20;;;;;;;20.46;52.89;102410.81;5054511;28;20056;-77
2021/11/18 08:28:15;;;;;;;2.50;0.82;;;;;;;20.45;52.96;102411.97;5054004;28;20021;-77
2021/11/18 08:30:42;;;;;;;1.85;0.85;;;;;;;20.69;52.10;102408.47;5054171;28;20404;-77
2021/11/18 08:33:12;;;;;;;2.33;0.90;;;;;;;20.60;52.24;102410.53;5054012;28;20021;-81
2021/11/18 08:35:38;;;;;;;;;;;;;;;20.55;52.38;102427.38;5054997;28;20103;-80
2021/11/18 08:38:09;;;;;;;8.30;1.70;;;;;;;20.32;53.16;102435.22;5054218;28;19967;-77
2021/11/18 08:40:38;;;;;;;2.63;0.65;;;;;;;20.53;52.53;102431.66;5053804;28;20044;-78
2021/11/18 08:43:05;;;;;;;2.55;0.90;;;;;;;20.65;52.29;102432.53;5054207;28;20024;-77
2021/11/18 08:45:32;;;;;;;5.03;0.88;;;;;;;20.84;51.69;102440.34;5054140;28;20024;-80
2021/11/18 08:47:59;;;;;;;2.75;1.10;;;;;;;21.10;50.83;102448.44;5054337;28;20056;-78
2021/11/18 08:50:25;;;;;;;5.68;1.23;;;;;;;20.98;51.27;102446.41;5053022;28;20434;-77
2021/11/18 08:52:52;;;;;;;3.13;1.60;;;;;;;20.90;51.57;102452.88;5053946;28;20055;-77
2021/11/18 08:55:27;;;;;;;8.15;1.65;;;;;;;20.68;52.05;102456.84;5053336;28;20036;-77
2021/11/18 08:57:54;;;;;;;6.15;1.50;;;;;;;21.01;51.04;102450.50;5053696;28;20091;-77
2021/11/18 09:00:27;;;;;;;2.90;1.30;;;;;;;20.59;52.58;102444.19;5053819;28;20025;-81
2021/11/18 09:02:54;;;;;;;2.50;0.82;;;;;;;20.67;52.32;102452.44;5058469;28;20028;-82
2021/11/18 09:05:21;;;;;;;2.60;0.70;;;;;;;20.84;52.02;102456.22;5075255;28;20016;-79
2021/11/18 09:07:47;;;;;;;3.25;1.10;;;;;;;20.71;52.47;102460.91;5064718;28;20032;-82
2021/11/18 09:10:13;;;;;;;4.18;1.05;;;;;;;21.03;51.47;102457.31;5062629;28;20513;-82
2021/11/18 09:12:42;;;;;;;3.70;0.70;;;;;;;20.71;52.31;102455.38;5062566;28;20027;-82
2021/11/18 09:15:08;;;;;;;2.15;0.70;;;;;;;20.79;52.11;102462.81;5063116;28;20016;-82
2021/11/18 09:17:34;;;;;;;2.05;0.50;;;;;;;20.83;52.12;102460.94;5062816;28;20473;-78
2021/11/18 09:20:00;;;;;;;3.50;0.70;;;;;;;21.10;51.17;102469.84;5060967;28;20120;-80
2021/11/18 09:22:25;;;;;;;4.90;0.68;;;;;;;21.23;51.09;102472.31;5063507;28;20387;-79
2021/11/18 09:24:58;;;;;;;3.53;0.70;;;;;;;21.20;50.97;102469.41;5062378;28;20035;-76
2021/11/18 09:27:30;;;;;;;3.22;0.80;;;;;;;21.62;50.11;102474.84;5061781;28;20036;-78
2021/11/18 09:29:56;;;;;;;2.80;0.70;;;;;;;21.63;50.11;102470.91;5062568;28;20407;-82
2021/11/18 09:32:28;;;;;;;1.23;0.75;;;;;;;21.37;50.98;102474.78;5062022;28;20029;-81
2021/11/18 09:34:54;;;;;;;1.77;0.70;;;;;;;21.62;50.54;102481.22;5066563;28;20016;-79
2021/11/18 09:37:20;;;;;;;3.55;0.90;;;;;;;21.57;50.45;102473.09;5073141;28;20028;-77
2021/11/18 09:39:46;;;;;;;4.70;1.30;;;;;;;22.04;49.23;102476.22;5072810;28;20033;-77
2021/11/18 09:42:16;;;;;;;3.63;1.63;;;;;;;21.87;49.61;102490.38;5073068;28;20052;-76
2021/11/18 09:44:54;;;;;;;2.80;1.20;;;;;;;22.20;48.72;102483.88;5073019;28;20025;-80
2021/11/18 09:47:52;;;;;;;1.38;1.10;;;;;;;22.01;49.38;102482.50;5072667;28;20033;-77
2021/11/18 09:50:35;;;;;;;3.85;1.50;;;;;;;22.05;48.96;102486.19;5072773;28;20108;-77
2021/11/18 09:53:21;;;;;;;3.08;1.75;;;;;;;22.02;49.01;102483.31;5072817;28;20471;-77
2021/11/18 09:55:56;;;;;;;3.13;1.40;;;;;;;22.16;48.60;102483.78;5069422;28;20115;-77
2021/11/18 09:59:04;;;;;;;2.67;1.50;;;;;;;21.91;48.88;102476.56;5070111;28;20047;-81
2021/11/18 10:01:56;;;;;;;3.50;1.00;;;;;;;21.79;49.26;102463.50;5037902;28;20036;-79
2021/11/18 10:04:34;;;;;;;7.75;1.60;;;;;;;22.01;49.21;102476.94;5035760;28;20036;-77
2021/11/18 10:07:02;;;;;;;2.58;1.20;;;;;;;22.11;48.84;102467.31;5035444;28;20119;-78
2021/11/18 10:09:42;;;;;;;6.28;1.80;;;;;;;22.35;48.21;102470.03;5035107;28;20040;-79
2021/11/18 10:12:19;;;;;;;3.80;1.55;;;;;;;22.04;49.17;102442.00;5036250;28;20046;-81
2021/11/18 10:15:12;;;;;;;3.25;2.10;;;;;;;22.43;48.08;102469.09;5034878;28;20029;-79
2021/11/18 10:17:42;;;;;;;4.55;1.67;;;;;;;22.11;48.90;102478.44;5034594;28;20029;-80
2021/11/18 10:20:20;;;;;;;3.83;2.13;;;;;;;22.17;48.55;102468.69;5034267;28;20403;-77
2021/11/18 10:22:49;;;;;;;3.25;1.45;;;;;;;22.17;48.60;102490.97;5048606;28;20025;-77
2021/11/18 10:25:18;;;;;;;3.70;1.50;;;;;;;22.06;48.89;102482.25;5060266;28;20390;-77
2021/11/18 10:27:56;;;;;;;3.15;1.40;;;;;;;21.96;48.90;102493.84;5060280;28;20033;-80
2021/11/18 10:30:36;;;;;;;2.10;1.05;;;;;;;21.24;50.59;102476.72;5033944;28;20045;-78
2021/11/18 10:33:04;;;;;;;1.33;1.00;;;;;;;21.74;49.26;102497.91;5035735;28;20021;-77
2021/11/18 10:35:53;;;;;;;1.75;0.95;;;;;;;21.70;49.54;102499.78;5036473;28;20071;-77
2021/11/18 10:38:23;;;;;;;3.30;0.90;;;;;;;21.35;49.89;102488.25;5050377;28;20025;-77
2021/11/18 10:41:03;;;;;;;2.90;1.08;;;;;;;21.77;48.95;102488.06;5058760;28;20048;-81
2021/11/18 10:43:35;;;;;;;0.90;0.60;;;;;;;21.62;49.13;102491.53;5059863;28;20029;-84
2021/11/18 10:46:31;;;;;;;3.40;1.48;;;;;;;21.64;48.93;102480.88;5062063;28;20032;-80
2021/11/18 10:49:14;;;;;;;2.97;1.23;;;;;;;21.92;48.50;102479.03;5034675;28;20039;-77
2021/11/18 10:51:55;;;;;;;3.33;1.35;;;;;;;22.08;47.83;102481.94;5035437;28;20039;-78
2021/11/18 10:54:43;;;;;;;1.30;1.15;;;;;;;22.12;47.91;102488.41;5034256;28;20029;-80
2021/11/18 10:57:15;;;;;;;3.22;1.00;;;;;;;22.22;47.49;102490.75;5036194;28;20029;-76
2021/11/18 10:59:45;;;;;;;2.88;1.33;;;;;;;22.01;48.04;102498.38;5053335;28;20104;-76
2021/11/18 11:02:31;;;;;;;4.78;1.40;;;;;;;21.93;48.43;102486.22;5058477;28;20505;-77
2021/11/18 11:05:00;;;;;;;8.50;1.45;;;;;;;21.99;47.94;102506.25;5052157;28;20391;-77
2021/11/18 11:07:40;;;;;;;4.82;1.48;;;;;;;21.95;48.22;102497.81;5052633;28;20112;-76
2021/11/18 11:10:12;;;;;;;9.00;3.72;;;;;;;22.11;47.76;102492.38;5053050;28;20060;-82
2021/11/18 11:13:02;;;;;;;5.18;2.67;;;;;;;22.03;47.89;102494.09;5039112;28;20499;-76
2021/11/18 11:16:14;;;;;;;6.95;2.28;;;;;;;22.21;47.84;102499.44;5032340;28;20102;-77
2021/11/18 11:19:03;;;;;;;10.90;2.28;;;;;;;21.99;48.17;102498.75;5045554;28;20041;-79
2021/11/18 11:21:38;;;;;;;8.02;2.55;;;;;;;21.86;48.51;102485.97;5050816;28;20033;-77
2021/11/18 11:25:01;;;;;;;6.45;1.98;;;;;;;22.25;47.68;102490.03;5051506;28;20469;-81
2021/11/18 11:27:57;;;;;;;1.63;0.93;;;;;;;22.30;47.79;102487.00;5008529;28;20116;-77
2021/11/18 11:30:26;;;;;;;4.18;2.72;;;;;;;22.47;47.50;102474.78;5008056;28;20068;-78
2021/11/18 11:33:26;;;;;;;4.05;2.67;;;;;;;22.51;47.16;102488.81;5043919;28;20097;-77
2021/11/18 11:36:18;;;;;;;1.92;1.15;;;;;;;22.31;47.79;102476.69;5016386;28;20549;-79